createdAt,value
2022-12-23T00:00:41.749Z,13.25
2022-12-23T00:03:09.060Z,11.40
2022-12-23T00:05:40.037Z,15.32
2022-12-23T00:08:08.155Z,14.83
2022-12-23T00:10:38.655Z,13.45
2022-12-23T00:13:23.964Z,21.30
2022-12-23T00:15:50.891Z,17.55
2022-12-23T00:18:17.717Z,16.10
2022-12-23T00:20:44.702Z,17.77
2022-12-23T00:23:11.714Z,19.45
2022-12-23T00:25:42.558Z,25.08
2022-12-23T00:28:11.806Z,23.13
2022-12-23T00:31:03.583Z,20.67
2022-12-23T00:33:35.678Z,20.67
2022-12-23T00:36:03.492Z,25.85
2022-12-23T00:38:48.805Z,23.55
2022-12-23T00:41:36.088Z,23.17
2022-12-23T00:44:04.287Z,26.27
2022-12-23T00:46:31.846Z,21.15
2022-12-23T00:49:17.552Z,25.50
2022-12-23T00:51:44.523Z,28.15
2022-12-23T00:54:11.396Z,25.30
2022-12-23T00:56:38.545Z,24.08
2022-12-23T00:59:05.779Z,20.90
2022-12-23T01:01:51.479Z,23.40
2022-12-23T01:04:37.967Z,26.67
2022-12-23T01:07:05.731Z,27.40
2022-12-23T01:09:33.169Z,27.02
2022-12-23T01:12:00.043Z,27.95
2022-12-23T01:14:27.013Z,30.95
2022-12-23T01:16:54.773Z,27.60
2022-12-23T01:19:21.767Z,31.88
2022-12-23T01:21:48.734Z,31.27
2022-12-23T01:24:15.786Z,27.85
2022-12-23T01:26:42.903Z,28.63
2022-12-23T01:29:09.912Z,30.05
2022-12-23T01:31:36.818Z,25.98
2022-12-23T01:34:03.679Z,25.95
2022-12-23T01:36:30.618Z,30.00
2022-12-23T01:38:57.640Z,29.13
2022-12-23T01:41:45.758Z,29.27
2022-12-23T01:44:50.075Z,32.97
2022-12-23T01:47:24.249Z,28.05
2022-12-23T01:49:56.246Z,31.77
2022-12-23T01:52:23.384Z,27.25
2022-12-23T01:54:50.542Z,30.25
2022-12-23T01:57:17.555Z,29.90
2022-12-23T02:00:03.396Z,28.60
2022-12-23T02:02:54.889Z,28.80
2022-12-23T02:05:23.444Z,29.45
2022-12-23T02:08:09.964Z,30.75
2022-12-23T02:11:01.220Z,25.45
2022-12-23T02:13:31.659Z,31.42
2022-12-23T02:16:18.246Z,30.35
2022-12-23T02:19:36.307Z,25.15
2022-12-23T02:22:12.330Z,26.92
2022-12-23T02:24:48.149Z,32.10
2022-12-23T02:27:25.608Z,29.92
2022-12-23T02:30:18.624Z,28.98
2022-12-23T02:32:50.448Z,28.67
2022-12-23T02:35:26.277Z,28.45
2022-12-23T02:38:09.096Z,31.38
2022-12-23T02:40:43.507Z,29.15
2022-12-23T02:43:28.262Z,33.63
2022-12-23T02:45:58.219Z,32.05
2022-12-23T02:48:38.909Z,30.23
2022-12-23T02:51:08.025Z,31.85
2022-12-23T02:53:38.381Z,28.05
2022-12-23T02:56:06.938Z,29.40
2022-12-23T02:58:39.157Z,33.50
2022-12-23T03:01:07.325Z,26.27
2022-12-23T03:03:35.520Z,29.75
2022-12-23T03:06:07.799Z,30.95
2022-12-23T03:08:39.989Z,28.52
2022-12-23T03:11:10.733Z,31.83
2022-12-23T03:13:49.062Z,36.80
2022-12-23T03:16:23.304Z,30.15
2022-12-23T03:19:12.071Z,35.25
2022-12-23T03:22:14.587Z,28.38
2022-12-23T03:24:50.636Z,31.30
2022-12-23T03:27:39.094Z,35.40
2022-12-23T03:30:11.199Z,28.83
2022-12-23T03:33:15.585Z,33.33
2022-12-23T03:35:48.448Z,31.00
2022-12-23T03:38:16.961Z,31.15
2022-12-23T03:40:47.022Z,32.83
2022-12-23T03:43:19.400Z,37.72
2022-12-23T03:45:51.286Z,36.90
2022-12-23T03:51:00.030Z,30.08
2022-12-23T03:53:33.538Z,30.27
2022-12-23T03:56:04.513Z,31.35
2022-12-23T03:58:45.099Z,32.20
2022-12-23T04:01:36.903Z,37.88
2022-12-23T04:04:11.804Z,40.75
2022-12-23T04:07:10.706Z,37.47
2022-12-23T04:09:38.136Z,45.25
2022-12-23T04:12:05.272Z,38.72
2022-12-23T04:14:33.140Z,39.10
2022-12-23T04:17:00.124Z,47.13
2022-12-23T04:19:27.222Z,42.60
2022-12-23T04:21:57.954Z,44.20
2022-12-23T04:24:24.899Z,40.08
2022-12-23T04:26:51.805Z,39.97
2022-12-23T04:29:18.668Z,40.70
2022-12-23T04:31:45.677Z,41.33
2022-12-23T04:34:12.680Z,47.60
2022-12-23T04:36:39.625Z,46.75
2022-12-23T04:39:06.505Z,43.72
2022-12-23T04:41:33.432Z,45.88
2022-12-23T04:44:00.377Z,47.40
2022-12-23T04:46:27.287Z,51.65
2022-12-23T04:48:54.302Z,54.80
2022-12-23T04:51:21.231Z,51.90
2022-12-23T04:53:48.135Z,47.33
2022-12-23T04:56:15.315Z,45.67
2022-12-23T04:58:42.396Z,43.00
2022-12-23T05:01:10.600Z,53.22
2022-12-23T05:03:38.506Z,48.80
2022-12-23T05:06:06.078Z,54.10
2022-12-23T05:08:32.945Z,51.97
2022-12-23T05:11:00.316Z,50.70
2022-12-23T05:13:27.215Z,53.65
2022-12-23T05:15:55.172Z,53.40
2022-12-23T05:18:22.569Z,47.05
2022-12-23T05:20:50.416Z,46.10
2022-12-23T05:23:17.449Z,52.65
2022-12-23T05:25:50.928Z,54.10
2022-12-23T05:28:17.836Z,45.28
2022-12-23T05:30:44.761Z,52.03
2022-12-23T05:33:11.683Z,72.05
2022-12-23T05:35:38.658Z,67.68
2022-12-23T05:38:05.495Z,75.10
2022-12-23T05:40:33.708Z,77.18
2022-12-23T05:43:01.062Z,57.65
2022-12-23T05:45:28.354Z,47.45
2022-12-23T05:47:55.362Z,52.25
2022-12-23T05:50:22.246Z,46.55
2022-12-23T05:52:49.462Z,45.40
2022-12-23T05:55:16.574Z,43.50
2022-12-23T05:57:43.614Z,39.40
2022-12-23T06:00:11.279Z,44.63
2022-12-23T06:02:41.374Z,40.03
2022-12-23T06:05:09.423Z,37.15
2022-12-23T06:07:36.591Z,40.95
2022-12-23T06:10:04.646Z,37.00
2022-12-23T06:12:31.643Z,43.78
2022-12-23T06:14:58.491Z,38.55
2022-12-23T06:17:25.616Z,40.63
2022-12-23T06:19:52.587Z,43.95
2022-12-23T06:22:21.803Z,44.33
2022-12-23T06:24:48.977Z,33.60
2022-12-23T06:27:16.320Z,38.83
2022-12-23T06:29:43.612Z,44.58
2022-12-23T06:32:11.095Z,37.83
2022-12-23T06:34:38.159Z,38.40
2022-12-23T06:37:05.158Z,44.05
2022-12-23T06:39:32.056Z,41.90
2022-12-23T06:41:59.010Z,41.33
2022-12-23T06:44:25.927Z,46.13
2022-12-23T06:46:52.837Z,40.13
2022-12-23T06:49:19.754Z,41.33
2022-12-23T06:51:46.747Z,41.92
2022-12-23T06:54:13.687Z,41.45
2022-12-23T06:56:40.704Z,44.80
2022-12-23T06:59:07.695Z,36.00
2022-12-23T07:01:34.820Z,40.60
2022-12-23T07:04:02.224Z,38.38
2022-12-23T07:06:29.366Z,34.17
2022-12-23T07:08:56.311Z,42.63
2022-12-23T07:11:23.218Z,32.75
2022-12-23T07:13:50.465Z,39.03
2022-12-23T07:16:17.472Z,37.33
2022-12-23T07:18:44.675Z,33.88
2022-12-23T07:21:21.256Z,32.47
2022-12-23T07:26:20.363Z,33.03
2022-12-23T07:28:48.862Z,28.75
2022-12-23T07:31:16.056Z,28.83
2022-12-23T07:33:43.385Z,32.28
2022-12-23T07:36:10.454Z,35.50
2022-12-23T07:38:37.358Z,37.72
2022-12-23T07:41:04.361Z,34.30
2022-12-23T07:43:31.315Z,31.98
2022-12-23T07:46:00.842Z,30.77
2022-12-23T07:48:28.336Z,37.45
2022-12-23T07:51:03.829Z,34.47
2022-12-23T07:53:30.979Z,36.70
2022-12-23T07:55:57.883Z,43.50
2022-12-23T07:58:25.416Z,37.60
2022-12-23T08:01:05.681Z,36.38
2022-12-23T08:03:32.787Z,40.83
2022-12-23T08:06:04.887Z,32.78
2022-12-23T08:08:32.397Z,44.03
2022-12-23T08:11:04.312Z,38.33
2022-12-23T08:16:00.134Z,36.30
2022-12-23T08:18:27.970Z,31.98
2022-12-23T08:20:57.124Z,33.08
2022-12-23T08:23:25.501Z,32.30
2022-12-23T08:26:12.256Z,38.53
2022-12-23T08:28:40.690Z,32.25
2022-12-23T08:31:16.932Z,32.42
2022-12-23T08:33:47.092Z,36.60
2022-12-23T08:36:22.516Z,35.05
2022-12-23T08:38:52.065Z,34.20
2022-12-23T08:41:23.257Z,39.00
2022-12-23T08:43:50.428Z,35.80
2022-12-23T08:46:17.617Z,30.65
2022-12-23T08:48:49.091Z,39.90
2022-12-23T08:53:44.642Z,35.22
2022-12-23T08:56:18.211Z,31.73
2022-12-23T08:58:47.110Z,34.95
2022-12-23T09:01:16.534Z,29.45
2022-12-23T09:03:44.265Z,37.30
2022-12-23T09:06:14.590Z,34.13
2022-12-23T09:08:41.973Z,38.55
2022-12-23T09:11:13.378Z,36.78
2022-12-23T09:13:40.710Z,34.45
2022-12-23T09:16:08.560Z,37.35
2022-12-23T09:18:36.381Z,33.92
2022-12-23T09:21:06.163Z,36.33
2022-12-23T09:23:33.921Z,34.80
2022-12-23T09:26:01.002Z,32.05
2022-12-23T09:28:28.006Z,35.15
2022-12-23T09:30:54.962Z,37.10
2022-12-23T09:33:22.029Z,31.50
2022-12-23T09:35:49.282Z,29.50
2022-12-23T09:38:17.044Z,36.58
2022-12-23T09:40:44.047Z,36.00
2022-12-23T09:43:38.967Z,35.08
2022-12-23T09:46:26.108Z,39.85
2022-12-23T09:49:12.818Z,41.85
2022-12-23T09:51:39.815Z,45.53
2022-12-23T09:54:25.381Z,46.03
2022-12-23T09:57:03.262Z,39.67
2022-12-23T10:00:07.521Z,35.78
2022-12-23T10:03:09.207Z,35.50
2022-12-23T10:05:50.986Z,35.05
2022-12-23T10:08:26.637Z,39.47
2022-12-23T10:11:12.833Z,34.35
2022-12-23T10:13:46.086Z,34.78
2022-12-23T10:16:29.670Z,35.30
2022-12-23T10:19:03.688Z,45.47
2022-12-23T10:21:48.072Z,51.88
2022-12-23T10:24:35.292Z,47.85
2022-12-23T10:27:24.303Z,37.60
2022-12-23T10:29:51.762Z,37.38
2022-12-23T10:32:26.389Z,44.75
2022-12-23T10:35:01.551Z,41.80
2022-12-23T10:37:59.424Z,40.85
2022-12-23T10:40:33.113Z,45.20
2022-12-23T10:43:21.584Z,41.88
2022-12-23T10:46:25.954Z,37.38
2022-12-23T10:48:55.581Z,44.85
2022-12-23T10:51:28.457Z,41.22
2022-12-23T10:54:15.602Z,35.50
2022-12-23T10:56:43.412Z,45.35
2022-12-23T10:59:15.377Z,40.35
2022-12-23T11:01:45.922Z,42.28
2022-12-23T11:04:23.006Z,44.38
2022-12-23T11:07:10.694Z,46.88
2022-12-23T11:09:44.775Z,36.55
2022-12-23T11:12:12.603Z,45.83
2022-12-23T11:14:42.439Z,41.88
2022-12-23T11:17:23.052Z,39.22
2022-12-23T11:20:20.291Z,36.88
2022-12-23T11:22:52.010Z,37.03
2022-12-23T11:25:31.540Z,37.72
2022-12-23T11:28:03.834Z,39.35
2022-12-23T11:30:33.625Z,37.42
2022-12-23T11:33:00.758Z,45.50
2022-12-23T11:35:30.434Z,44.00
2022-12-23T11:37:59.213Z,42.75
2022-12-23T11:40:38.018Z,41.58
2022-12-23T11:43:07.288Z,42.38
2022-12-23T11:45:36.522Z,42.45
2022-12-23T11:48:05.339Z,39.72
2022-12-23T11:50:37.719Z,43.58
2022-12-23T11:53:24.408Z,46.72
2022-12-23T11:56:10.437Z,41.95
2022-12-23T11:58:48.318Z,40.40
2022-12-23T12:01:21.042Z,36.83
2022-12-23T12:04:15.705Z,45.28
2022-12-23T12:06:47.340Z,42.60
2022-12-23T12:09:18.573Z,44.35
2022-12-23T12:11:49.739Z,40.65
2022-12-23T12:14:23.446Z,41.58
2022-12-23T12:16:56.637Z,42.50
2022-12-23T12:19:57.581Z,37.70
2022-12-23T12:23:01.717Z,40.90
2022-12-23T12:25:53.795Z,42.65
2022-12-23T12:30:56.934Z,45.60
2022-12-23T12:33:36.349Z,41.00
2022-12-23T12:36:29.217Z,45.38
2022-12-23T12:38:59.923Z,39.97
2022-12-23T12:41:35.334Z,44.00
2022-12-23T12:44:28.351Z,39.67
2022-12-23T12:47:15.993Z,40.15
2022-12-23T12:50:00.840Z,39.88
2022-12-23T12:52:28.813Z,40.60
2022-12-23T12:55:17.122Z,40.53
2022-12-23T12:57:44.152Z,42.50
2022-12-23T13:00:19.057Z,43.28
2022-12-23T13:03:07.857Z,47.90
2022-12-23T13:05:37.510Z,44.47
2022-12-23T13:08:19.396Z,41.50
2022-12-23T13:10:50.205Z,47.00
2022-12-23T13:13:54.603Z,46.08
2022-12-23T13:16:40.786Z,41.97
2022-12-23T13:19:38.116Z,42.53
2022-12-23T13:22:10.714Z,39.20
2022-12-23T13:24:40.869Z,44.38
2022-12-23T13:27:29.617Z,40.75
2022-12-23T13:30:02.915Z,43.35
2022-12-23T13:33:13.445Z,44.67
2022-12-23T13:36:08.463Z,40.65
2022-12-23T13:38:50.547Z,36.00
2022-12-23T13:41:40.144Z,39.35
2022-12-23T13:44:10.983Z,42.75
2022-12-23T13:46:56.791Z,41.08
2022-12-23T13:49:43.408Z,43.30
2022-12-23T13:52:13.451Z,41.95
2022-12-23T13:55:08.712Z,40.20
2022-12-23T13:57:44.928Z,42.25
2022-12-23T14:00:18.598Z,37.53
2022-12-23T14:03:02.356Z,48.38
2022-12-23T14:05:32.339Z,42.53
2022-12-23T14:08:15.545Z,40.03
2022-12-23T14:10:53.418Z,40.60
2022-12-23T14:13:24.684Z,38.75
2022-12-23T14:16:15.470Z,35.95
2022-12-23T14:18:48.484Z,37.08
2022-12-23T14:21:52.653Z,43.88
2022-12-23T14:24:56.780Z,42.45
2022-12-23T14:27:52.376Z,41.00
2022-12-23T14:30:34.785Z,32.38
2022-12-23T14:33:28.268Z,32.92
2022-12-23T14:36:17.634Z,32.30
2022-12-23T14:39:13.438Z,31.50
2022-12-23T14:41:50.278Z,35.03
2022-12-23T14:44:35.961Z,37.63
2022-12-23T14:47:22.853Z,39.08
2022-12-23T14:49:49.958Z,37.75
2022-12-23T14:52:39.340Z,35.30
2022-12-23T14:55:31.200Z,39.17
2022-12-23T14:58:09.622Z,42.47
2022-12-23T15:00:53.224Z,41.33
2022-12-23T15:03:20.716Z,38.50
2022-12-23T15:05:47.770Z,35.30
2022-12-23T15:08:36.426Z,46.35
2022-12-23T15:11:03.787Z,36.88
2022-12-23T15:13:31.844Z,40.80
2022-12-23T15:16:01.787Z,45.38
2022-12-23T15:18:29.368Z,61.60
2022-12-23T15:21:09.309Z,64.00
2022-12-23T15:23:36.230Z,55.28
2022-12-23T15:26:03.437Z,39.40
2022-12-23T15:28:40.109Z,33.08
2022-12-23T15:31:24.505Z,37.67
2022-12-23T15:34:02.833Z,39.47
2022-12-23T15:36:35.805Z,39.25
2022-12-23T15:39:08.868Z,36.00
2022-12-23T15:41:45.877Z,43.35
2022-12-23T15:44:24.495Z,38.25
2022-12-23T15:46:51.982Z,46.63
2022-12-23T15:49:21.032Z,63.05
2022-12-23T15:52:16.501Z,58.63
2022-12-23T15:55:05.376Z,54.42
2022-12-23T15:57:44.991Z,45.67
2022-12-23T16:00:29.823Z,48.65
2022-12-23T16:03:01.127Z,49.10
2022-12-23T16:05:35.066Z,56.58
2022-12-23T16:08:15.495Z,61.60
2022-12-23T16:10:55.594Z,55.03
2022-12-23T16:13:22.865Z,63.38
2022-12-23T16:15:49.863Z,55.55
2022-12-23T16:18:19.961Z,40.92
2022-12-23T16:20:53.738Z,41.05
2022-12-23T16:23:21.909Z,44.65
2022-12-23T16:25:51.932Z,39.25
2022-12-23T16:28:24.435Z,32.80
2022-12-23T16:30:56.834Z,38.83
2022-12-23T16:33:59.614Z,33.88
2022-12-23T16:36:26.642Z,47.97
2022-12-23T16:38:57.493Z,38.88
2022-12-23T16:41:24.432Z,41.53
2022-12-23T16:43:52.671Z,43.88
2022-12-23T16:46:22.881Z,44.92
2022-12-23T16:49:01.309Z,46.50
2022-12-23T16:51:30.929Z,43.50
2022-12-23T16:53:58.027Z,38.38
2022-12-23T16:56:28.707Z,31.23
2022-12-23T16:58:56.109Z,40.70
2022-12-23T17:01:25.568Z,35.00
2022-12-23T17:03:53.116Z,29.70
2022-12-23T17:06:21.201Z,23.00
2022-12-23T17:08:48.529Z,22.15
2022-12-23T17:11:22.358Z,12.27
2022-12-23T17:13:49.432Z,23.50
2022-12-23T17:16:22.154Z,22.83
2022-12-23T17:18:51.288Z,33.97
2022-12-23T17:21:32.321Z,17.45
2022-12-23T17:24:07.528Z,24.07
2022-12-23T17:26:34.674Z,25.83
2022-12-23T17:29:03.598Z,25.00
2022-12-23T17:31:31.282Z,29.98
2022-12-23T17:33:58.343Z,16.50
2022-12-23T17:36:25.489Z,18.05
2022-12-23T17:38:52.347Z,18.00
2022-12-23T17:41:45.874Z,16.25
2022-12-23T17:44:16.757Z,9.95
2022-12-23T17:46:45.293Z,7.50
2022-12-23T17:49:12.350Z,7.22
2022-12-23T17:51:40.536Z,11.55
2022-12-23T17:54:07.661Z,17.48
2022-12-23T17:56:34.807Z,16.58
2022-12-23T17:59:01.878Z,33.95
2022-12-23T18:01:31.526Z,24.83
2022-12-23T18:03:59.947Z,26.83
2022-12-23T18:06:29.190Z,23.42
2022-12-23T18:08:59.792Z,23.85
2022-12-23T18:11:39.700Z,23.63
2022-12-23T18:14:09.265Z,30.05
2022-12-23T18:16:36.160Z,20.67
2022-12-23T18:19:03.100Z,17.67
2022-12-23T18:21:30.139Z,16.13
2022-12-23T18:23:58.967Z,16.88
2022-12-23T18:26:26.439Z,21.48
2022-12-23T18:28:54.610Z,25.15
2022-12-23T18:31:25.793Z,33.53
2022-12-23T18:33:53.045Z,14.77
2022-12-23T18:36:27.445Z,18.00
2022-12-23T18:38:54.949Z,15.85
2022-12-23T18:41:22.242Z,22.27
2022-12-23T18:43:49.937Z,20.35
2022-12-23T18:46:17.153Z,16.45
2022-12-23T18:48:44.152Z,15.27
2022-12-23T18:51:19.556Z,12.65
2022-12-23T18:53:47.507Z,16.67
2022-12-23T18:56:21.286Z,10.38
2022-12-23T18:58:48.601Z,9.70
2022-12-23T19:01:16.940Z,14.55
2022-12-23T19:03:44.373Z,14.68
2022-12-23T19:06:13.903Z,12.88
2022-12-23T19:08:41.811Z,46.85
2022-12-23T19:11:18.033Z,15.25
2022-12-23T19:13:45.759Z,10.45
2022-12-23T19:16:18.096Z,51.22
2022-12-23T19:18:46.608Z,46.10
2022-12-23T19:21:13.714Z,8.75
2022-12-23T19:23:41.474Z,11.57
2022-12-23T19:26:13.015Z,10.20
2022-12-23T19:28:43.852Z,13.32
2022-12-23T19:31:13.208Z,9.60
2022-12-23T19:33:41.634Z,8.57
2022-12-23T19:36:10.465Z,8.85
2022-12-23T19:38:37.592Z,6.75
2022-12-23T19:41:06.262Z,9.88
2022-12-23T19:43:34.646Z,8.52
2022-12-23T19:46:04.150Z,8.63
2022-12-23T19:48:31.328Z,10.23
2022-12-23T19:51:05.135Z,9.75
2022-12-23T19:53:32.470Z,9.48
2022-12-23T19:56:08.656Z,12.18
2022-12-23T19:58:37.279Z,7.75
2022-12-23T20:01:20.368Z,7.25
2022-12-23T20:03:48.646Z,13.80
2022-12-23T20:06:27.456Z,9.90
2022-12-23T20:09:00.323Z,30.63
2022-12-23T20:11:30.871Z,32.90
2022-12-23T20:13:58.900Z,27.55
2022-12-23T20:16:27.272Z,17.58
2022-12-23T20:18:54.933Z,18.88
2022-12-23T20:21:22.285Z,13.30
2022-12-23T20:23:49.809Z,13.45
2022-12-23T20:26:18.129Z,40.60
2022-12-23T20:28:45.776Z,53.35
2022-12-23T20:31:20.790Z,100.60
2022-12-23T20:33:48.536Z,77.68
2022-12-23T20:36:17.412Z,63.47
2022-12-23T20:38:45.481Z,118.90
2022-12-23T20:41:14.475Z,105.40
2022-12-23T20:43:42.595Z,55.17
2022-12-23T20:48:41.115Z,47.53
2022-12-23T20:51:13.095Z,59.92
2022-12-23T20:53:40.547Z,52.20
2022-12-23T20:56:14.813Z,44.78
2022-12-23T20:59:01.052Z,37.40
2022-12-23T21:01:39.317Z,28.77
2022-12-23T21:04:09.510Z,38.90
2022-12-23T21:06:38.367Z,29.25
2022-12-23T21:09:09.330Z,32.00
2022-12-23T21:11:42.169Z,27.70
2022-12-23T21:14:10.563Z,33.65
2022-12-23T21:16:39.020Z,32.72
2022-12-23T21:19:08.528Z,32.13
2022-12-23T21:21:36.298Z,22.77
2022-12-23T21:24:05.153Z,22.42
2022-12-23T21:26:35.157Z,19.42
2022-12-23T21:29:07.325Z,19.55
2022-12-23T21:31:38.394Z,26.73
2022-12-23T21:34:06.198Z,35.70
2022-12-23T21:36:36.638Z,27.20
2022-12-23T21:39:10.672Z,27.35
2022-12-23T21:41:46.022Z,47.92
2022-12-23T21:44:15.101Z,108.00
2022-12-23T21:46:42.571Z,187.35
2022-12-23T21:49:11.744Z,71.80
2022-12-23T21:51:41.329Z,49.55
2022-12-23T21:54:11.148Z,58.63
2022-12-23T21:56:39.173Z,48.15
2022-12-23T21:59:12.000Z,80.38
2022-12-23T22:01:39.816Z,103.40
2022-12-23T22:04:06.865Z,91.80
2022-12-23T22:06:39.447Z,62.97
2022-12-23T22:09:07.912Z,48.47
2022-12-23T22:11:36.425Z,39.08
2022-12-23T22:14:05.533Z,47.20
2022-12-23T22:16:33.451Z,52.03
2022-12-23T22:19:01.617Z,38.70
2022-12-23T22:21:31.993Z,28.33
2022-12-23T22:23:59.620Z,23.88
2022-12-23T22:26:29.447Z,33.30
2022-12-23T22:28:58.621Z,30.50
2022-12-23T22:31:37.956Z,34.42
2022-12-23T22:34:06.199Z,36.65
2022-12-23T22:36:33.754Z,36.75
2022-12-23T22:39:01.904Z,26.58
2022-12-23T22:41:30.577Z,27.92
2022-12-23T22:43:58.461Z,24.42
2022-12-23T22:46:25.969Z,28.15
2022-12-23T22:48:54.039Z,19.70
2022-12-23T22:51:26.653Z,19.02
2022-12-23T22:53:54.778Z,30.45
2022-12-23T22:56:23.611Z,25.35
2022-12-23T22:58:52.827Z,23.35
2022-12-23T23:01:34.521Z,31.27
2022-12-23T23:04:02.995Z,36.85
2022-12-23T23:06:37.733Z,34.30
2022-12-23T23:09:09.572Z,36.45
2022-12-23T23:11:36.742Z,41.30
2022-12-23T23:14:04.722Z,36.10
2022-12-23T23:16:32.111Z,31.17
2022-12-23T23:19:00.025Z,31.55
2022-12-23T23:21:27.097Z,28.88
2022-12-23T23:23:54.231Z,53.75
2022-12-23T23:26:21.995Z,56.15
2022-12-23T23:28:49.134Z,48.45
2022-12-23T23:31:41.071Z,38.28
2022-12-23T23:34:02.904Z,39.15
2022-12-23T23:36:29.906Z,41.00
2022-12-23T23:38:57.083Z,48.58
2022-12-23T23:41:24.407Z,50.55
2022-12-23T23:43:52.037Z,47.50
2022-12-23T23:46:19.325Z,51.65
2022-12-23T23:48:46.294Z,63.55
2022-12-23T23:51:13.388Z,58.13
2022-12-23T23:53:40.675Z,47.17
2022-12-23T23:56:08.792Z,46.38
2022-12-23T23:58:36.622Z,53.45
